Time;durP1;ratioP1;P1;durP2;ratioP2;P2;SDS_P1;SDS_P2;PMS_P1;PMS_P2;Temp;Humidity;BMP_temperature;BMP_pressure;BME280_temperature;BME280_humidity;BME280_pressure;Samples;Min_cycle;Max_cycle;Signal;HPM_P1;HPM_P2
2022/03/06 00:02:25;;;;;;;21.25;6.72;;;;;;;7.10;73.35;102277.00;7389998;19;20484;-81
2022/03/06 00:04:52;;;;;;;16.30;5.53;;;;;;;7.06;72.90;102258.00;7389587;19;20017;-81
2022/03/06 00:07:19;;;;;;;21.60;6.40;;;;;;;7.06;72.95;102258.00;7389631;19;20037;-80
2022/03/06 00:09:46;;;;;;;21.52;5.72;;;;;;;7.06;72.56;102258.00;7390849;19;20031;-79
2022/03/06 00:12:13;;;;;;;17.40;5.43;;;;;;;7.05;72.53;102263.38;7389841;19;20007;-79
2022/03/06 00:14:40;;;;;;;18.35;6.47;;;;;;;7.05;72.55;102261.59;7390772;19;20007;-81
2022/03/06 00:17:07;;;;;;;22.20;7.95;;;;;;;7.04;72.78;102270.38;7391265;19;20014;-80
2022/03/06 00:19:34;;;;;;;19.77;6.95;;;;;;;7.02;72.96;102271.38;7388663;19;20018;-80
2022/03/06 00:22:02;;;;;;;20.75;6.18;;;;;;;7.06;72.53;102273.72;7387427;19;20029;-80
2022/03/06 00:24:29;;;;;;;24.30;8.75;;;;;;;7.07;72.12;102266.72;7382470;19;20029;-80
2022/03/06 00:26:56;;;;;;;17.45;6.15;;;;;;;7.01;71.43;102270.53;7386710;19;20302;-79
2022/03/06 00:29:23;;;;;;;20.23;7.68;;;;;;;7.01;72.36;102267.13;7383949;19;20014;-79
2022/03/06 00:31:50;;;;;;;17.52;6.63;;;;;;;6.95;71.97;102270.94;7387344;19;20041;-79
2022/03/06 00:34:17;;;;;;;17.95;6.65;;;;;;;6.90;72.74;102269.53;7383896;19;20435;-80
2022/03/06 00:36:44;;;;;;;20.27;6.85;;;;;;;6.87;73.41;102279.25;7384250;19;20322;-79
2022/03/06 00:39:17;;;;;;;17.98;5.65;;;;;;;6.90;74.55;102270.38;7387310;19;20007;-79
2022/03/06 00:41:43;;;;;;;17.73;5.55;;;;;;;6.89;72.84;102273.94;7384394;19;20037;-80
2022/03/06 00:44:10;;;;;;;17.98;7.07;;;;;;;6.80;73.79;102274.50;7384724;19;20154;-81
2022/03/06 00:46:37;;;;;;;19.45;6.35;;;;;;;6.83;73.69;102275.13;7387604;19;20011;-80
2022/03/06 00:49:04;;;;;;;22.02;6.97;;;;;;;6.83;73.36;102274.28;7384639;19;20454;-79
2022/03/06 00:51:31;;;;;;;16.27;6.32;;;;;;;6.87;72.80;102268.78;7383353;19;20018;-79
2022/03/06 00:53:58;;;;;;;18.73;5.70;;;;;;;6.89;72.50;102271.31;7381406;19;20029;-79
2022/03/06 00:56:25;;;;;;;17.55;5.45;;;;;;;6.87;73.06;102275.78;7385517;19;20011;-79
2022/03/06 00:58:51;;;;;;;14.93;4.28;;;;;;;6.84;72.67;102274.22;7384449;19;20010;-79
2022/03/06 01:01:18;;;;;;;14.88;6.00;;;;;;;6.82;73.35;102272.59;7382521;19;20010;-79
2022/03/06 01:03:45;;;;;;;18.00;6.07;;;;;;;6.82;72.81;102276.06;7385214;19;20010;-79
2022/03/06 01:06:12;;;;;;;15.60;5.45;;;;;;;6.84;72.78;102273.38;7387644;19;20014;-80
2022/03/06 01:08:39;;;;;;;15.40;5.53;;;;;;;6.78;72.01;102268.50;7382607;19;20048;-80
2022/03/06 01:11:06;;;;;;;19.45;5.22;;;;;;;6.77;72.35;102277.28;7383077;19;20022;-79
2022/03/06 01:13:33;;;;;;;15.73;5.82;;;;;;;6.74;72.72;102274.84;7384278;19;20014;-79
2022/03/06 01:16:00;;;;;;;16.23;5.55;;;;;;;6.73;73.04;102275.78;7381171;19;20023;-80
2022/03/06 01:18:31;;;;;;;15.45;5.18;;;;;;;6.70;72.72;102282.06;7382195;19;20035;-79
2022/03/06 01:20:58;;;;;;;15.02;5.50;;;;;;;6.69;73.24;102289.97;7382814;19;20011;-79
2022/03/06 01:23:25;;;;;;;14.45;5.15;;;;;;;6.69;72.95;102293.44;7383599;19;20010;-79
2022/03/06 01:25:52;;;;;;;17.55;6.18;;;;;;;6.69;72.28;102298.66;7380030;19;20017;-80
2022/03/06 01:28:19;;;;;;;14.18;5.07;;;;;;;6.71;72.76;102290.72;7385513;19;20352;-80
2022/03/06 01:30:46;;;;;;;14.23;4.75;;;;;;;6.70;72.80;102294.28;7382672;19;20019;-79
2022/03/06 01:33:13;;;;;;;15.82;7.82;;;;;;;6.69;73.07;102293.44;7381325;19;20604;-81
2022/03/06 01:35:41;;;;;;;21.02;7.45;;;;;;;6.67;73.17;102305.75;7382137;19;20554;-80
2022/03/06 01:38:08;;;;;;;13.52;4.97;;;;;;;6.67;74.21;102305.75;7382613;19;20010;-80
2022/03/06 01:40:35;;;;;;;15.68;5.00;;;;;;;6.70;72.93;102297.75;7384761;19;20010;-80
2022/03/06 01:43:02;;;;;;;15.10;4.43;;;;;;;6.67;72.87;102300.53;7380265;19;20066;-80
2022/03/06 01:45:29;;;;;;;10.52;3.78;;;;;;;6.72;72.59;102305.47;7386345;19;20015;-79
2022/03/06 01:47:58;;;;;;;14.63;4.20;;;;;;;6.67;71.53;102312.75;7383807;19;20488;-80
2022/03/06 01:50:28;;;;;;;13.70;4.15;;;;;;;6.67;72.35;102308.38;7384952;19;20029;-80
2022/03/06 01:52:57;;;;;;;11.27;3.97;;;;;;;6.67;72.08;102304.91;7379640;19;20393;-80
2022/03/06 01:55:26;;;;;;;10.27;3.88;;;;;;;6.65;72.42;102302.41;7384116;19;20022;-80
2022/03/06 01:57:58;;;;;;;11.63;4.53;;;;;;;6.62;72.43;102302.56;7383928;19;20015;-80
2022/03/06 02:00:29;;;;;;;9.82;3.55;;;;;;;6.59;71.60;102297.53;7381061;19;20035;-79
2022/03/06 02:02:56;;;;;;;13.85;3.95;;;;;;;6.54;72.72;102301.34;7381286;19;20014;-79
2022/03/06 02:05:24;;;;;;;14.20;4.40;;;;;;;6.52;72.91;102301.41;7381932;19;20007;-80
2022/03/06 02:07:54;;;;;;;12.05;3.95;;;;;;;6.56;72.90;102292.47;7382564;19;20043;-79
2022/03/06 02:10:22;;;;;;;15.02;4.20;;;;;;;6.56;72.84;102297.69;7383694;19;20029;-79
2022/03/06 02:12:49;;;;;;;13.18;4.43;;;;;;;6.56;72.71;102294.22;7380717;19;20014;-80
2022/03/06 02:15:17;;;;;;;17.35;4.35;;;;;;;6.53;72.55;102299.66;7383201;19;20424;-80
2022/03/06 02:17:48;;;;;;;14.18;3.95;;;;;;;6.55;73.20;102298.66;7380322;19;20070;-79
2022/03/06 02:20:19;;;;;;;15.30;4.80;;;;;;;6.57;73.94;102293.31;7382789;19;20507;-80
2022/03/06 02:22:49;;;;;;;15.15;4.15;;;;;;;6.52;73.43;102285.75;7381378;19;20030;-79
2022/03/06 02:25:20;;;;;;;13.52;3.95;;;;;;;6.57;73.03;102290.69;7383256;19;20479;-80
2022/03/06 02:27:50;;;;;;;13.18;4.20;;;;;;;6.57;73.28;102293.31;7384268;19;20017;-80
2022/03/06 02:30:20;;;;;;;11.30;3.60;;;;;;;6.60;74.03;102287.91;7388595;19;20360;-80
2022/03/06 02:32:49;;;;;;;16.23;4.43;;;;;;;6.56;73.18;102284.63;7387716;19;20045;-80
2022/03/06 02:35:17;;;;;;;12.10;4.40;;;;;;;6.63;72.88;102295.56;7388224;19;20021;-80
2022/03/06 02:37:44;;;;;;;11.52;3.83;;;;;;;6.64;72.72;102282.41;7387519;19;20034;-81
2022/03/06 02:40:13;;;;;;;16.45;3.92;;;;;;;6.59;72.89;102281.00;7384315;19;20019;-80
2022/03/06 02:42:43;;;;;;;12.32;4.93;;;;;;;6.55;73.25;102282.97;7385637;19;20513;-80
2022/03/06 02:45:15;;;;;;;12.30;3.72;;;;;;;6.51;73.75;102277.97;7391089;19;20018;-80
2022/03/06 02:47:44;;;;;;;12.90;3.83;;;;;;;6.54;73.66;102283.03;7389453;19;20420;-80
2022/03/06 02:50:14;;;;;;;12.70;5.13;;;;;;;6.50;74.79;102269.31;7386489;19;20117;-80
2022/03/06 02:52:41;;;;;;;13.50;3.97;;;;;;;6.55;72.95;102277.72;7387519;19;20074;-80
2022/03/06 02:55:10;;;;;;;10.07;3.53;;;;;;;6.49;72.52;102280.69;7386193;19;20018;-80
2022/03/06 02:57:38;;;;;;;14.35;4.10;;;;;;;6.50;72.98;102277.16;7385790;19;20018;-80
2022/03/06 03:00:08;;;;;;;13.40;4.13;;;;;;;6.46;73.76;102286.09;7387180;19;20083;-80
2022/03/06 03:02:35;;;;;;;9.60;3.53;;;;;;;6.49;73.93;102270.25;7388490;19;20010;-79
2022/03/06 03:05:05;;;;;;;8.02;2.45;;;;;;;6.53;72.69;102282.19;7387611;19;20368;-80
2022/03/06 03:07:32;;;;;;;8.23;3.20;;;;;;;6.56;72.70;102282.00;7388647;19;20007;-80
2022/03/06 03:09:59;;;;;;;11.07;3.50;;;;;;;6.51;73.42;102276.22;7386180;19;20058;-79
2022/03/06 03:12:26;;;;;;;10.10;3.42;;;;;;;6.59;73.33;102270.53;7387621;19;20542;-79
2022/03/06 03:14:53;;;;;;;15.27;3.05;;;;;;;6.58;72.37;102266.22;7386194;19;20017;-80
2022/03/06 03:17:20;;;;;;;8.60;3.72;;;;;;;6.57;72.02;102277.63;7389360;19;20554;-79
2022/03/06 03:19:47;;;;;;;14.07;3.95;;;;;;;6.58;72.39;102276.69;7383025;19;20345;-79
2022/03/06 03:22:14;;;;;;;11.85;3.20;;;;;;;6.58;72.32;102274.06;7387382;19;20014;-79
2022/03/06 03:24:41;;;;;;;11.63;3.33;;;;;;;6.64;73.06;102268.50;7388949;19;20444;-79
2022/03/06 03:27:08;;;;;;;10.35;3.75;;;;;;;6.66;72.96;102267.44;7386577;19;20014;-79
2022/03/06 03:29:35;;;;;;;9.25;3.20;;;;;;;6.68;73.19;102264.75;7384873;19;20014;-80
2022/03/06 03:32:02;;;;;;;11.68;2.83;;;;;;;6.71;72.74;102264.56;7383805;19;20467;-79
2022/03/06 03:34:29;;;;;;;8.30;2.85;;;;;;;6.72;71.25;102261.84;7383453;19;20574;-80
2022/03/06 03:36:56;;;;;;;6.10;2.75;;;;;;;6.73;71.47;102260.09;7385986;19;20340;-80
2022/03/06 03:39:23;;;;;;;10.02;2.30;;;;;;;6.74;71.30;102248.69;7382797;19;20006;-80
2022/03/06 03:41:50;;;;;;;11.95;2.78;;;;;;;6.69;72.04;102254.22;7387188;19;20011;-79
2022/03/06 03:44:16;;;;;;;10.65;2.88;;;;;;;6.67;72.56;102250.84;7387394;19;20026;-80
2022/03/06 03:46:44;;;;;;;8.60;1.88;;;;;;;6.66;71.76;102256.16;7385110;19;20010;-79
2022/03/06 03:49:11;;;;;;;13.85;2.97;;;;;;;6.62;71.67;102258.13;7383937;19;20011;-80
2022/03/06 03:51:38;;;;;;;8.40;2.88;;;;;;;6.63;71.94;102266.81;7384119;19;20034;-80
2022/03/06 03:54:05;;;;;;;9.30;2.15;;;;;;;6.58;71.97;102279.31;7384300;19;20041;-80
2022/03/06 03:56:32;;;;;;;6.25;2.67;;;;;;;6.56;72.21;102273.31;7384949;19;20404;-80
2022/03/06 03:58:58;;;;;;;7.25;2.70;;;;;;;6.52;71.98;102271.81;7387888;19;20348;-79
2022/03/06 04:01:25;;;;;;;15.93;3.25;;;;;;;6.53;73.32;102268.28;7386891;19;20018;-80
2022/03/06 04:03:53;;;;;;;11.35;2.05;;;;;;;6.53;72.92;102273.50;7387640;19;20045;-80
2022/03/06 04:06:20;;;;;;;10.77;2.20;;;;;;;6.54;72.77;102277.81;7384816;19;20471;-81
2022/03/06 04:08:46;;;;;;;7.63;2.47;;;;;;;6.59;72.97;102268.78;7384284;19;20018;-81
2022/03/06 04:11:13;;;;;;;11.98;3.13;;;;;;;6.62;72.32;102270.34;7384484;19;20002;-80
2022/03/06 04:13:40;;;;;;;9.15;2.83;;;;;;;6.51;72.58;102275.34;7385257;19;20043;-80
2022/03/06 04:16:07;;;;;;;10.82;3.05;;;;;;;6.58;73.65;102282.75;7382704;19;20010;-80
2022/03/06 04:18:34;;;;;;;9.02;2.25;;;;;;;6.55;71.82;102282.97;7383734;19;20660;-80
2022/03/06 04:21:01;;;;;;;8.65;2.10;;;;;;;6.52;72.68;102280.50;7381504;19;20046;-80
2022/03/06 04:23:28;;;;;;;7.05;2.22;;;;;;;6.55;72.56;102284.72;7384826;19;20447;-79
2022/03/06 04:25:54;;;;;;;10.95;2.10;;;;;;;6.51;71.83;102288.44;7382642;19;20018;-80
2022/03/06 04:28:21;;;;;;;7.78;2.08;;;;;;;6.45;71.95;102297.47;7385555;19;20410;-80
2022/03/06 04:30:48;;;;;;;8.63;2.40;;;;;;;6.46;72.15;102296.53;7383314;19;20122;-80
2022/03/06 04:33:15;;;;;;;9.00;1.95;;;;;;;6.39;73.22;102295.25;7382451;19;20010;-79
2022/03/06 04:35:42;;;;;;;8.32;1.83;;;;;;;6.38;73.09;102297.00;7387916;19;20022;-79
2022/03/06 04:38:09;;;;;;;10.07;2.10;;;;;;;6.42;74.40;102293.28;7383217;19;20049;-79
2022/03/06 04:40:36;;;;;;;6.68;1.40;;;;;;;6.44;72.45;102301.03;7384451;19;20448;-79
2022/03/06 04:43:03;;;;;;;5.78;1.92;;;;;;;6.49;71.89;102296.38;7382603;19;20062;-79
2022/03/06 04:45:30;;;;;;;4.93;1.48;;;;;;;6.50;72.00;102305.91;7385524;19;20021;-79
2022/03/06 04:47:57;;;;;;;6.90;1.88;;;;;;;6.52;71.75;102301.41;7380217;19;20015;-80
2022/03/06 04:50:24;;;;;;;6.25;1.42;;;;;;;6.43;71.72;102308.03;7385406;19;20122;-80
2022/03/06 04:52:52;;;;;;;7.25;2.45;;;;;;;6.45;71.95;102302.69;7385127;19;20440;-80
2022/03/06 04:55:19;;;;;;;9.85;1.75;;;;;;;6.44;72.69;102294.03;7382768;19;20015;-80
2022/03/06 04:57:46;;;;;;;5.00;1.30;;;;;;;6.43;73.14;102300.19;7383643;19;20011;-80
2022/03/06 05:00:15;;;;;;;10.00;2.33;;;;;;;6.45;74.67;102298.31;7381675;19;20309;-79
2022/03/06 05:02:43;;;;;;;7.50;1.55;;;;;;;6.37;74.17;102308.41;7385925;19;20034;-80
2022/03/06 05:05:10;;;;;;;6.85;1.48;;;;;;;6.45;73.06;102313.16;7384024;19;20018;-80
2022/03/06 05:07:37;;;;;;;5.18;1.77;;;;;;;6.52;72.55;102314.50;7382322;19;20018;-80
2022/03/06 05:10:13;;;;;;;5.00;1.73;;;;;;;6.44;73.09;102309.72;7381798;19;20467;-79
2022/03/06 05:12:41;;;;;;;5.13;1.30;;;;;;;6.48;71.81;102315.63;7381993;19;20010;-79
2022/03/06 05:15:11;;;;;;;10.45;1.30;;;;;;;6.47;71.90;102311.31;7383886;19;20517;-80
2022/03/06 05:17:40;;;;;;;9.50;1.77;;;;;;;6.42;72.01;102308.97;7381474;19;20392;-81
2022/03/06 05:20:10;;;;;;;6.20;1.77;;;;;;;6.45;72.57;102307.94;7382703;19;20022;-80
2022/03/06 05:22:38;;;;;;;5.47;1.30;;;;;;;6.44;72.16;102307.13;7381484;19;20031;-80
2022/03/06 05:25:07;;;;;;;4.53;1.17;;;;;;;6.45;72.50;102314.00;7383618;19;20011;-79
2022/03/06 05:27:38;;;;;;;6.18;1.65;;;;;;;6.49;72.52;102325.16;7383153;19;20503;-82
2022/03/06 05:30:08;;;;;;;7.75;1.42;;;;;;;6.49;72.38;102322.53;7382830;19;20019;-81
2022/03/06 05:32:34;;;;;;;4.05;1.23;;;;;;;6.54;72.58;102332.72;7381674;19;20037;-80
2022/03/06 05:35:01;;;;;;;8.05;1.70;;;;;;;6.53;72.00;102333.63;7383610;19;20431;-78
2022/03/06 05:37:29;;;;;;;5.60;1.58;;;;;;;6.55;71.75;102335.25;7382238;19;20011;-79
2022/03/06 05:39:56;;;;;;;7.50;1.00;;;;;;;6.55;71.52;102343.09;7383765;19;20137;-81
2022/03/06 05:42:23;;;;;;;4.78;1.30;;;;;;;6.56;71.21;102349.97;7380688;19;20527;-79
2022/03/06 05:44:50;;;;;;;7.35;1.50;;;;;;;6.56;70.91;102341.28;7382044;19;20338;-79
2022/03/06 05:47:17;;;;;;;6.18;1.83;;;;;;;6.50;71.55;102342.53;7381406;19;20479;-79
2022/03/06 05:49:45;;;;;;;3.65;0.80;;;;;;;6.50;71.10;102346.91;7381928;19;20038;-81
2022/03/06 05:52:11;;;;;;;6.32;0.93;;;;;;;6.46;70.93;102346.22;7382791;19;20034;-80
2022/03/06 05:54:38;;;;;;;4.65;1.00;;;;;;;6.44;71.15;102343.72;7381777;19;20014;-79
2022/03/06 05:57:06;;;;;;;5.35;0.80;;;;;;;6.46;72.00;102348.84;7381958;19;20006;-79
2022/03/06 05:59:33;;;;;;;7.60;1.08;;;;;;;6.46;72.70;102351.44;7379160;19;20090;-78
2022/03/06 06:02:00;;;;;;;4.82;1.70;;;;;;;6.48;72.22;102359.22;7382745;19;20214;-79
2022/03/06 06:04:28;;;;;;;4.97;0.88;;;;;;;6.48;71.05;102362.66;7379265;19;20010;-78
2022/03/06 06:06:54;;;;;;;5.15;0.90;;;;;;;6.49;71.38;102376.59;7381903;19;20018;-80
2022/03/06 06:09:21;;;;;;;9.60;1.70;;;;;;;6.52;70.93;102373.78;7378584;19;20007;-78
2022/03/06 06:11:48;;;;;;;5.28;0.85;;;;;;;6.51;70.96;102369.47;7382977;19;20017;-79
2022/03/06 06:14:15;;;;;;;5.28;0.80;;;;;;;6.53;69.91;102378.09;7384979;19;20044;-80
2022/03/06 06:16:46;;;;;;;7.22;0.80;;;;;;;6.53;69.53;102378.94;7380480;19;20427;-79
2022/03/06 06:19:13;;;;;;;6.25;1.10;;;;;;;6.49;70.12;102373.97;7380297;19;20095;-81
2022/03/06 06:21:43;;;;;;;4.72;1.00;;;;;;;6.47;71.00;102376.66;7381892;19;20042;-79
2022/03/06 06:24:11;;;;;;;4.60;1.20;;;;;;;6.49;70.63;102377.44;7379957;19;20121;-79
2022/03/06 06:26:38;;;;;;;2.60;0.90;;;;;;;6.52;70.08;102379.00;7380649;19;20010;-80
2022/03/06 06:29:05;;;;;;;4.25;0.90;;;;;;;6.53;70.11;102378.94;7383858;19;20021;-82
2022/03/06 06:31:32;;;;;;;7.13;1.00;;;;;;;6.47;69.63;102386.28;7383171;19;20047;-79
2022/03/06 06:34:00;;;;;;;4.45;1.50;;;;;;;6.52;70.26;102392.09;7379881;19;20013;-79
2022/03/06 06:36:27;;;;;;;6.68;1.00;;;;;;;6.49;70.72;102389.66;7379645;19;20463;-79
2022/03/06 06:38:54;;;;;;;2.33;0.70;;;;;;;6.51;69.51;102393.00;7383765;19;20023;-80
2022/03/06 06:41:21;;;;;;;6.57;1.02;;;;;;;6.49;69.81;102393.13;7382157;19;20074;-79
2022/03/06 06:43:49;;;;;;;7.30;1.10;;;;;;;6.48;70.05;102393.19;7380753;19;20317;-79
2022/03/06 06:46:17;;;;;;;2.75;0.80;;;;;;;6.49;69.70;102400.13;7380474;19;20010;-79
2022/03/06 06:48:45;;;;;;;4.90;0.95;;;;;;;6.43;70.40;102409.16;7378505;19;20037;-79
2022/03/06 06:51:12;;;;;;;6.88;0.88;;;;;;;6.38;70.96;102416.41;7380196;19;20025;-80
2022/03/06 06:53:39;;;;;;;3.90;0.93;;;;;;;6.38;69.31;102411.19;7378535;19;20015;-79
2022/03/06 06:56:06;;;;;;;4.93;1.58;;;;;;;6.38;70.15;102416.41;7380764;19;20015;-79
2022/03/06 06:58:33;;;;;;;3.15;0.60;;;;;;;6.32;69.68;102403.66;7380482;19;20090;-79
2022/03/06 07:01:00;;;;;;;8.25;1.42;;;;;;;6.19;69.88;102403.53;7377571;19;20011;-79
2022/03/06 07:03:27;;;;;;;7.28;0.80;;;;;;;6.25;70.13;102402.31;7377738;19;20011;-80
2022/03/06 07:05:56;;;;;;;3.08;0.80;;;;;;;6.24;70.63;102405.88;7379823;19;20021;-79
2022/03/06 07:08:24;;;;;;;3.13;0.90;;;;;;;6.28;70.87;102402.16;7382564;19;20014;-79
2022/03/06 07:10:51;;;;;;;4.30;1.17;;;;;;;6.30;71.17;102408.97;7379976;19;20034;-79
2022/03/06 07:13:18;;;;;;;4.15;1.05;;;;;;;6.35;71.10;102409.56;7380064;19;20119;-79
2022/03/06 07:15:45;;;;;;;5.03;1.08;;;;;;;6.38;69.77;102414.63;7391572;19;20034;-80
2022/03/06 07:18:12;;;;;;;5.88;1.15;;;;;;;6.39;70.48;102416.31;7385947;19;20087;-81
2022/03/06 07:20:39;;;;;;;3.33;0.98;;;;;;;6.43;71.33;102422.22;7388165;19;20021;-79
2022/03/06 07:23:06;;;;;;;4.53;0.93;;;;;;;6.49;70.71;102426.25;7387187;19;20485;-79
2022/03/06 07:25:33;;;;;;;5.03;1.25;;;;;;;6.46;70.23;102427.25;7388601;19;20015;-80
2022/03/06 07:28:00;;;;;;;3.97;0.80;;;;;;;6.47;70.44;102428.94;7387595;19;20392;-79
2022/03/06 07:30:27;;;;;;;7.85;1.17;;;;;;;6.52;70.35;102432.16;7386494;19;20024;-79
2022/03/06 07:32:55;;;;;;;3.00;0.88;;;;;;;6.53;69.58;102433.84;7386461;19;20011;-79
2022/03/06 07:35:22;;;;;;;2.63;0.80;;;;;;;6.60;69.18;102439.56;7386517;19;20018;-79
2022/03/06 07:37:50;;;;;;;3.70;0.90;;;;;;;6.63;69.51;102440.22;7386298;19;20011;-79
2022/03/06 07:40:18;;;;;;;2.30;0.90;;;;;;;6.58;69.51;102438.81;7385382;19;20011;-79
2022/03/06 07:42:46;;;;;;;3.95;1.08;;;;;;;6.67;69.81;102452.19;7384352;19;20010;-79
2022/03/06 07:45:15;;;;;;;4.43;0.85;;;;;;;6.70;69.79;102451.19;7385490;19;20273;-79
2022/03/06 07:47:41;;;;;;;4.15;0.90;;;;;;;6.61;68.94;102452.53;7387483;19;20466;-79
2022/03/06 07:50:12;;;;;;;3.78;1.02;;;;;;;6.65;69.19;102450.63;7384981;19;20435;-80
2022/03/06 07:52:39;;;;;;;5.03;2.00;;;;;;;6.69;69.96;102458.19;7382833;19;20009;-80
2022/03/06 07:55:08;;;;;;;5.28;1.10;;;;;;;6.70;69.30;102451.19;7385104;19;20011;-80
2022/03/06 07:57:35;;;;;;;7.20;1.48;;;;;;;6.73;70.53;102456.22;7384902;19;20466;-80
2022/03/06 08:00:05;;;;;;;10.05;1.45;;;;;;;6.77;69.18;102461.19;7383627;19;20011;-79
2022/03/06 08:02:32;;;;;;;6.25;1.02;;;;;;;6.80;69.13;102461.03;7385410;19;20018;-79
2022/03/06 08:05:00;;;;;;;3.58;1.08;;;;;;;6.87;69.09;102459.75;7383718;19;20014;-80
2022/03/06 08:07:27;;;;;;;6.30;1.20;;;;;;;6.81;68.03;102462.72;7386438;19;20321;-79
2022/03/06 08:09:54;;;;;;;4.00;1.48;;;;;;;6.82;69.28;102461.78;7388325;19;20014;-79
2022/03/06 08:12:24;;;;;;;3.40;1.23;;;;;;;6.82;68.23;102466.16;7383731;19;20010;-79
2022/03/06 08:14:51;;;;;;;6.47;1.42;;;;;;;6.84;69.44;102465.16;7385118;19;20014;-79
2022/03/06 08:17:18;;;;;;;5.95;1.30;;;;;;;6.87;68.73;102469.38;7389479;19;20039;-80
2022/03/06 08:19:46;;;;;;;4.43;1.10;;;;;;;6.88;68.40;102477.13;7384494;19;20028;-79
2022/03/06 08:22:13;;;;;;;4.97;1.15;;;;;;;6.92;69.33;102488.25;7385136;19;20050;-80
2022/03/06 08:24:41;;;;;;;6.03;0.98;;;;;;;6.86;69.45;102473.75;7383309;19;20037;-79
2022/03/06 08:27:08;;;;;;;3.63;1.10;;;;;;;6.94;69.84;102477.72;7384807;19;20006;-79
2022/03/06 08:29:35;;;;;;;7.20;0.95;;;;;;;6.97;68.65;102473.13;7383884;19;20463;-79
2022/03/06 08:32:02;;;;;;;5.93;1.10;;;;;;;7.00;69.30;102469.50;7388207;19;20017;-80
2022/03/06 08:34:29;;;;;;;5.90;1.17;;;;;;;7.08;69.42;102472.50;7383015;19;20187;-79
2022/03/06 08:36:56;;;;;;;6.78;1.63;;;;;;;7.19;69.16;102467.50;7387887;19;20302;-80
2022/03/06 08:39:23;;;;;;;4.53;1.92;;;;;;;7.27;68.63;102475.72;7383198;19;20011;-81
2022/03/06 08:41:51;;;;;;;6.97;1.00;;;;;;;7.39;68.08;102479.41;7384923;19;20007;-81
2022/03/06 08:44:17;;;;;;;8.10;1.00;;;;;;;7.58;67.33;102482.59;7382078;19;20494;-80
2022/03/06 08:46:44;;;;;;;4.55;1.10;;;;;;;7.68;66.52;102478.50;7388378;19;20049;-79
2022/03/06 08:49:11;;;;;;;6.57;1.33;;;;;;;7.83;65.98;102487.19;7386912;19;20017;-81
2022/03/06 08:51:40;;;;;;;3.35;0.90;;;;;;;7.94;65.71;102480.38;7385342;19;20007;-81
2022/03/06 08:54:11;;;;;;;4.70;1.63;;;;;;;8.08;65.44;102489.97;7382539;19;20021;-81
2022/03/06 08:56:38;;;;;;;8.20;1.20;;;;;;;8.10;64.45;102475.84;7382305;19;20086;-80
2022/03/06 08:59:05;;;;;;;3.38;0.88;;;;;;;7.91;64.75;102479.72;7385218;19;20130;-80
2022/03/06 09:01:32;;;;;;;5.75;1.65;;;;;;;7.74;66.07;102491.22;7385839;19;20487;-80
2022/03/06 09:03:59;;;;;;;5.53;1.40;;;;;;;7.69;65.68;102482.81;7381842;19;20027;-82
2022/03/06 09:06:27;;;;;;;4.57;1.00;;;;;;;7.71;66.04;102489.66;7385961;19;20006;-79
2022/03/06 09:08:55;;;;;;;5.78;1.42;;;;;;;7.68;66.51;102478.50;7385737;19;20026;-78
2022/03/06 09:11:22;;;;;;;4.75;1.40;;;;;;;7.68;66.96;102488.97;7384624;19;20017;-79
2022/03/06 09:13:49;;;;;;;5.25;1.17;;;;;;;7.63;65.58;102477.94;7381248;19;20042;-79
2022/03/06 09:16:16;;;;;;;7.35;0.90;;;;;;;7.68;65.82;102486.34;7385983;19;20332;-81
2022/03/06 09:18:46;;;;;;;5.13;0.90;;;;;;;7.75;65.63;102495.53;7381356;19;20018;-80
2022/03/06 09:21:13;;;;;;;6.22;1.00;;;;;;;7.80;65.20;102503.97;7382157;19;20014;-80
2022/03/06 09:23:40;;;;;;;3.65;0.93;;;;;;;7.74;64.33;102509.56;7385843;19;20036;-79
2022/03/06 09:26:07;;;;;;;4.07;0.98;;;;;;;7.77;64.28;102504.16;7382733;19;20448;-79
2022/03/06 09:28:34;;;;;;;6.50;1.02;;;;;;;7.70;64.64;102514.16;7385422;19;20022;-79
2022/03/06 09:31:01;;;;;;;7.20;1.40;;;;;;;7.59;65.06;102511.31;7383429;19;20305;-80
2022/03/06 09:33:29;;;;;;;4.70;0.98;;;;;;;7.65;64.66;102510.97;7381218;19;20405;-78
2022/03/06 09:35:56;;;;;;;7.70;1.00;;;;;;;7.60;64.24;102518.25;7381970;19;20014;-80
2022/03/06 09:38:23;;;;;;;4.50;0.93;;;;;;;7.52;64.80;102514.38;7380809;19;20011;-79
2022/03/06 09:40:54;;;;;;;7.05;1.08;;;;;;;7.53;65.53;102505.59;7383217;19;20018;-79
2022/03/06 09:43:25;;;;;;;9.30;1.50;;;;;;;7.56;65.13;102516.75;7381729;19;20018;-79
2022/03/06 09:46:03;;;;;;;5.20;0.80;;;;;;;7.58;63.12;102512.25;7378857;19;20047;-80
2022/03/06 09:48:30;;;;;;;3.05;0.80;;;;;;;7.50;63.32;102513.66;7381134;19;20038;-79
2022/03/06 09:51:00;;;;;;;7.95;1.15;;;;;;;7.50;62.99;102511.88;7387943;19;20018;-81
2022/03/06 09:53:27;;;;;;;5.95;0.90;;;;;;;7.43;62.55;102509.69;7389109;19;20356;-78
2022/03/06 09:55:54;;;;;;;5.18;1.20;;;;;;;7.36;62.43;102511.03;7382667;19;20006;-79
2022/03/06 09:58:21;;;;;;;4.75;0.85;;;;;;;7.45;64.20;102510.47;7388480;19;20035;-79
2022/03/06 10:00:48;;;;;;;4.82;0.70;;;;;;;7.53;62.75;102510.84;7387273;19;20010;-81
2022/03/06 10:03:18;;;;;;;4.35;0.70;;;;;;;7.64;62.04;102514.50;7390543;19;20010;-80
2022/03/06 10:05:49;;;;;;;6.22;0.70;;;;;;;7.73;61.17;102492.16;7383409;19;20420;-81
2022/03/06 10:08:22;;;;;;;5.13;1.08;;;;;;;7.90;58.74;102504.22;7384361;19;20435;-82
2022/03/06 10:10:52;;;;;;;4.95;0.50;;;;;;;7.93;57.30;102504.88;7382940;19;20352;-79
2022/03/06 10:13:30;;;;;;;4.55;0.50;;;;;;;7.94;56.67;102505.72;7386096;19;20014;-80
2022/03/06 10:16:07;;;;;;;5.25;0.75;;;;;;;7.91;55.50;102512.00;7385612;19;20705;-81
2022/03/06 10:18:47;;;;;;;5.45;0.57;;;;;;;7.96;55.12;102506.47;7385524;19;20014;-80
2022/03/06 10:21:16;;;;;;;7.93;0.70;;;;;;;7.94;54.35;102511.81;7386285;19;20033;-81
2022/03/06 10:23:45;;;;;;;3.35;0.63;;;;;;;8.00;55.39;102503.56;7382329;19;20014;-80
2022/03/06 10:26:19;;;;;;;2.97;0.38;;;;;;;8.00;55.15;102503.56;7381972;19;20018;-79
2022/03/06 10:28:46;;;;;;;4.55;0.50;;;;;;;8.02;54.42;102498.25;7384827;19;20026;-79
2022/03/06 10:31:18;;;;;;;5.72;0.85;;;;;;;7.95;52.31;102505.63;7385622;19;20050;-80
2022/03/06 10:34:00;;;;;;;3.50;0.52;;;;;;;7.96;53.73;102512.56;7384796;19;20103;-80
2022/03/06 10:36:34;;;;;;;2.60;0.50;;;;;;;8.01;54.24;102515.75;7385982;19;20015;-82
2022/03/06 10:39:03;;;;;;;2.83;0.50;;;;;;;8.02;54.19;102514.81;7384650;19;20433;-83
2022/03/06 10:41:41;;;;;;;7.75;0.50;;;;;;;8.07;53.82;102518.00;7382405;19;20014;-79
2022/03/06 10:44:10;;;;;;;4.35;0.50;;;;;;;8.08;53.21;102513.56;7381514;19;20030;-80
2022/03/06 10:46:38;;;;;;;3.50;0.80;;;;;;;8.03;54.34;102513.00;7381642;19;20030;-81
2022/03/06 10:49:13;;;;;;;4.70;0.50;;;;;;;8.09;53.72;102516.09;7391163;19;20101;-82
2022/03/06 10:51:44;;;;;;;3.35;0.43;;;;;;;7.99;52.67;102517.59;7389350;19;20026;-80
2022/03/06 10:54:14;;;;;;;2.25;0.57;;;;;;;8.05;54.46;102517.25;7391670;19;20033;-81
2022/03/06 10:56:43;;;;;;;3.03;0.68;;;;;;;8.06;53.68;102529.41;7393614;19;20002;-80
2022/03/06 10:59:19;;;;;;;7.03;0.70;;;;;;;8.09;52.74;102510.03;7393429;19;20011;-79
2022/03/06 11:01:48;;;;;;;4.90;0.70;;;;;;;8.12;53.80;102523.81;7389884;19;20390;-80
2022/03/06 11:04:18;;;;;;;5.22;0.82;;;;;;;8.15;53.88;102518.34;7389013;19;20368;-82
2022/03/06 11:06:49;;;;;;;4.40;0.73;;;;;;;8.28;52.86;102525.47;7392191;19;20018;-82
2022/03/06 11:09:18;;;;;;;1.95;0.52;;;;;;;8.33;53.48;102528.69;7388689;19;20010;-81
2022/03/06 11:11:48;;;;;;;5.13;0.40;;;;;;;8.42;53.88;102522.84;7386730;19;20007;-80
2022/03/06 11:14:15;;;;;;;5.35;0.65;;;;;;;8.43;54.41;102519.28;7386717;19;20229;-80
2022/03/06 11:16:43;;;;;;;2.80;0.50;;;;;;;8.46;53.27;102519.94;7396886;19;20010;-79
2022/03/06 11:19:10;;;;;;;3.33;0.57;;;;;;;8.57;53.70;102527.13;7391881;19;20018;-81
2022/03/06 11:21:41;;;;;;;1.63;0.30;;;;;;;8.57;52.33;102527.97;7392191;19;20272;-81
2022/03/06 11:24:09;;;;;;;1.27;0.30;;;;;;;8.52;52.76;102518.72;7391970;19;20356;-81
2022/03/06 11:26:47;;;;;;;6.10;0.52;;;;;;;8.40;52.14;102508.97;7390457;19;20350;-81
2022/03/06 11:29:16;;;;;;;3.72;0.50;;;;;;;8.46;53.51;102505.97;7386761;19;20006;-81
2022/03/06 11:31:50;;;;;;;5.05;0.35;;;;;;;8.43;51.53;102493.88;7371846;19;20317;-81
2022/03/06 11:34:28;;;;;;;4.03;0.30;;;;;;;8.52;51.12;102502.97;7377634;19;20006;-80
2022/03/06 11:36:56;;;;;;;3.70;0.50;;;;;;;8.56;50.97;102497.44;7389488;19;20054;-80